createdAt,value
2022-10-06T00:01:09.837Z,1.90
2022-10-06T00:03:40.206Z,2.10
2022-10-06T00:06:09.089Z,2.10
2022-10-06T00:08:39.033Z,1.80
2022-10-06T00:11:07.509Z,2.08
2022-10-06T00:13:36.431Z,2.17
2022-10-06T00:16:09.532Z,1.98
2022-10-06T00:18:39.268Z,1.90
2022-10-06T00:21:07.304Z,2.13
2022-10-06T00:23:35.408Z,2.00
2022-10-06T00:26:03.285Z,2.05
2022-10-06T00:28:32.000Z,1.90
2022-10-06T00:31:02.269Z,1.80
2022-10-06T00:33:30.166Z,2.40
2022-10-06T00:36:00.923Z,2.00
2022-10-06T00:38:29.798Z,2.13
2022-10-06T00:40:58.147Z,1.80
2022-10-06T00:43:45.584Z,2.20
2022-10-06T00:46:19.224Z,2.13
2022-10-06T00:48:53.113Z,1.80
2022-10-06T00:51:24.013Z,1.90
2022-10-06T00:53:52.384Z,2.13
2022-10-06T00:56:20.318Z,1.70
2022-10-06T00:58:50.269Z,1.92
2022-10-06T01:01:18.272Z,1.73
2022-10-06T01:03:50.036Z,1.60
2022-10-06T01:06:17.866Z,1.60
2022-10-06T01:08:47.759Z,1.95
2022-10-06T01:11:16.299Z,1.88
2022-10-06T01:13:46.451Z,1.95
2022-10-06T01:16:19.415Z,1.73
2022-10-06T01:18:49.657Z,1.00
2022-10-06T01:21:27.837Z,0.90
2022-10-06T01:23:58.608Z,0.85
2022-10-06T01:26:29.439Z,0.88
2022-10-06T01:28:57.872Z,1.02
2022-10-06T01:31:28.451Z,0.80
2022-10-06T01:33:57.063Z,1.10
2022-10-06T01:36:25.200Z,0.50
2022-10-06T01:38:53.056Z,0.77
2022-10-06T01:41:22.587Z,0.75
2022-10-06T01:43:50.829Z,0.80
2022-10-06T01:46:19.131Z,0.80
2022-10-06T01:48:47.202Z,0.50
2022-10-06T01:51:17.382Z,0.57
2022-10-06T01:53:45.518Z,0.98
2022-10-06T01:56:13.747Z,1.08
2022-10-06T01:58:43.805Z,0.60
2022-10-06T02:01:12.229Z,0.75
2022-10-06T02:03:41.788Z,0.43
2022-10-06T02:06:11.068Z,0.25
2022-10-06T02:08:39.490Z,0.40
2022-10-06T02:11:10.451Z,0.20
2022-10-06T02:13:46.719Z,0.20
2022-10-06T02:16:15.035Z,0.30
2022-10-06T02:18:44.289Z,0.20
2022-10-06T02:21:16.559Z,0.40
2022-10-06T02:23:44.645Z,0.30
2022-10-06T02:26:17.396Z,0.30
2022-10-06T02:28:47.975Z,0.40
2022-10-06T02:31:22.057Z,0.50
2022-10-06T02:33:50.032Z,0.30
2022-10-06T02:36:19.671Z,0.50
2022-10-06T02:38:47.771Z,0.35
2022-10-06T02:41:15.751Z,0.40
2022-10-06T02:43:43.700Z,0.25
2022-10-06T02:46:15.016Z,0.30
2022-10-06T02:48:48.562Z,0.40
2022-10-06T02:51:18.835Z,0.80
2022-10-06T02:53:48.759Z,0.65
2022-10-06T02:56:20.427Z,0.50
2022-10-06T02:58:48.919Z,0.60
2022-10-06T03:01:27.580Z,0.50
2022-10-06T03:03:58.534Z,0.60
2022-10-06T03:06:28.113Z,0.40
2022-10-06T03:09:16.239Z,0.40
2022-10-06T03:11:45.346Z,0.47
2022-10-06T03:14:21.948Z,0.57
2022-10-06T03:16:55.104Z,0.52
2022-10-06T03:19:28.153Z,0.40
2022-10-06T03:21:56.697Z,0.50
2022-10-06T03:24:34.015Z,0.28
2022-10-06T03:27:02.097Z,0.43
2022-10-06T03:29:30.961Z,0.63
2022-10-06T03:32:00.867Z,0.35
2022-10-06T03:34:29.335Z,0.73
2022-10-06T03:36:59.057Z,0.60
2022-10-06T03:39:28.224Z,0.50
2022-10-06T03:41:56.058Z,0.60
2022-10-06T03:44:24.533Z,0.63
2022-10-06T03:46:52.951Z,0.82
2022-10-06T03:49:22.265Z,0.93
2022-10-06T03:51:50.185Z,0.80
2022-10-06T03:54:23.461Z,1.00
2022-10-06T03:56:54.715Z,0.80
2022-10-06T03:59:22.923Z,0.98
2022-10-06T04:01:52.966Z,0.80
2022-10-06T04:04:28.009Z,0.70
2022-10-06T04:07:01.452Z,0.90
2022-10-06T04:09:29.293Z,0.90
2022-10-06T04:11:58.036Z,0.82
2022-10-06T04:14:26.454Z,1.17
2022-10-06T04:16:54.651Z,0.88
2022-10-06T04:19:28.901Z,0.85
2022-10-06T04:21:57.412Z,0.90
2022-10-06T04:24:26.694Z,0.93
2022-10-06T04:27:17.932Z,0.95
2022-10-06T04:29:52.118Z,1.30
2022-10-06T04:32:20.708Z,0.85
2022-10-06T04:34:50.175Z,0.90
2022-10-06T04:37:18.051Z,0.88
2022-10-06T04:39:46.925Z,1.17
2022-10-06T04:42:14.699Z,1.10
2022-10-06T04:44:42.584Z,1.58
2022-10-06T04:47:10.874Z,1.13
2022-10-06T04:49:38.674Z,1.25
2022-10-06T04:52:08.086Z,1.38
2022-10-06T04:54:38.110Z,1.40
2022-10-06T04:57:07.454Z,1.10
2022-10-06T04:59:52.650Z,1.40
2022-10-06T05:02:20.777Z,1.30
2022-10-06T05:04:52.591Z,1.40
2022-10-06T05:07:24.459Z,1.20
2022-10-06T05:09:53.923Z,1.60
2022-10-06T05:12:21.759Z,1.60
2022-10-06T05:14:49.739Z,1.23
2022-10-06T05:17:18.486Z,0.98
2022-10-06T05:19:47.574Z,1.48
2022-10-06T05:22:15.457Z,1.02
2022-10-06T05:24:44.647Z,1.40
2022-10-06T05:27:12.776Z,1.35
2022-10-06T05:29:40.688Z,1.50
2022-10-06T05:32:10.062Z,1.67
2022-10-06T05:34:38.767Z,1.50
2022-10-06T05:37:07.352Z,1.30
2022-10-06T05:39:36.074Z,1.00
2022-10-06T05:42:05.468Z,0.93
2022-10-06T05:44:33.582Z,1.48
2022-10-06T05:49:33.908Z,1.45
2022-10-06T05:52:04.327Z,1.52
2022-10-06T05:54:34.677Z,1.50
2022-10-06T05:57:02.734Z,1.55
2022-10-06T05:59:34.662Z,1.10
2022-10-06T06:02:04.340Z,1.27
2022-10-06T06:04:57.016Z,1.70
2022-10-06T06:07:25.017Z,1.70
2022-10-06T06:09:53.433Z,1.83
2022-10-06T06:12:21.333Z,2.40
2022-10-06T06:15:11.997Z,2.70
2022-10-06T06:17:45.538Z,2.47
2022-10-06T06:20:14.244Z,1.75
2022-10-06T06:22:42.193Z,1.70
2022-10-06T06:25:12.880Z,1.38
2022-10-06T06:27:42.252Z,1.83
2022-10-06T06:30:13.142Z,1.88
2022-10-06T06:32:41.648Z,1.77
2022-10-06T06:35:10.399Z,1.48
2022-10-06T06:37:38.525Z,1.35
2022-10-06T06:40:07.822Z,1.75
2022-10-06T06:42:38.895Z,1.58
2022-10-06T06:45:37.241Z,1.20
2022-10-06T06:48:34.797Z,1.20
2022-10-06T06:51:03.173Z,1.50
2022-10-06T06:53:32.852Z,1.25
2022-10-06T06:56:02.595Z,1.30
2022-10-06T06:58:33.298Z,1.30
2022-10-06T07:03:57.082Z,2.17
2022-10-06T07:06:29.424Z,1.67
2022-10-06T07:09:00.635Z,1.63
2022-10-06T07:11:30.895Z,2.08
2022-10-06T07:14:03.012Z,2.13
2022-10-06T07:16:50.666Z,1.65
2022-10-06T07:19:52.498Z,1.92
2022-10-06T07:22:41.389Z,2.53
2022-10-06T07:25:25.101Z,1.53
2022-10-06T07:27:57.264Z,1.55
2022-10-06T07:30:31.026Z,1.30
2022-10-06T07:33:06.889Z,1.50
2022-10-06T07:35:34.911Z,1.38
2022-10-06T07:38:07.962Z,1.50
2022-10-06T07:40:50.460Z,1.83
2022-10-06T07:43:25.434Z,1.85
2022-10-06T07:45:53.948Z,1.23
2022-10-06T07:48:50.615Z,1.52
2022-10-06T07:51:20.606Z,1.90
2022-10-06T07:53:50.737Z,2.22
2022-10-06T07:56:27.402Z,1.65
2022-10-06T07:58:58.793Z,1.92
2022-10-06T08:01:29.477Z,1.60
2022-10-06T08:03:58.792Z,1.83
2022-10-06T08:06:26.886Z,1.40
2022-10-06T08:08:56.469Z,1.77
2022-10-06T08:11:24.473Z,1.63
2022-10-06T08:13:52.762Z,2.38
2022-10-06T08:16:22.931Z,2.15
2022-10-06T08:18:53.285Z,1.67
2022-10-06T08:21:24.580Z,1.80
2022-10-06T08:23:53.995Z,1.73
2022-10-06T08:26:23.500Z,1.45
2022-10-06T08:28:53.261Z,1.73
2022-10-06T08:31:23.058Z,1.33
2022-10-06T08:34:16.022Z,1.42
2022-10-06T08:36:57.012Z,1.88
2022-10-06T08:39:33.233Z,1.67
2022-10-06T08:42:01.095Z,1.55
2022-10-06T08:44:35.506Z,1.73
2022-10-06T08:47:13.422Z,1.63
2022-10-06T08:49:45.931Z,1.38
2022-10-06T08:52:34.387Z,1.50
2022-10-06T08:55:15.790Z,1.65
2022-10-06T08:58:01.522Z,2.00
2022-10-06T09:00:33.817Z,1.67
2022-10-06T09:03:02.605Z,3.17
2022-10-06T09:05:31.907Z,2.03
2022-10-06T09:08:24.526Z,1.55
2022-10-06T09:11:06.382Z,1.42
2022-10-06T09:13:43.500Z,1.80
2022-10-06T09:16:16.676Z,1.75
2022-10-06T09:19:07.158Z,2.30
2022-10-06T09:21:41.059Z,1.65
2022-10-06T09:26:45.392Z,1.90
2022-10-06T09:29:15.263Z,1.50
2022-10-06T09:31:48.852Z,1.58
2022-10-06T09:34:26.487Z,1.45
2022-10-06T09:37:03.105Z,1.55
2022-10-06T09:39:36.964Z,1.55
2022-10-06T09:42:14.689Z,1.17
2022-10-06T09:44:54.911Z,1.25
2022-10-06T09:47:27.825Z,1.42
2022-10-06T09:50:05.275Z,1.23
2022-10-06T09:52:33.143Z,1.13
2022-10-06T09:55:11.441Z,1.38
2022-10-06T09:57:40.984Z,1.65
2022-10-06T10:00:27.689Z,1.20
2022-10-06T10:02:59.879Z,1.48
2022-10-06T10:05:30.169Z,1.52
2022-10-06T10:08:09.992Z,1.27
2022-10-06T10:10:42.509Z,1.38
2022-10-06T10:14:07.531Z,1.65
2022-10-06T10:19:56.456Z,1.30
2022-10-06T10:26:21.068Z,1.17
2022-10-06T10:33:01.743Z,1.10
2022-10-06T10:39:26.184Z,1.30
2022-10-06T10:45:49.793Z,1.33
2022-10-06T10:52:11.263Z,1.23
2022-10-06T10:58:39.680Z,1.10
2022-10-06T11:01:18.818Z,1.40
2022-10-06T11:03:56.423Z,1.15
2022-10-06T11:06:54.280Z,1.05
2022-10-06T11:09:26.361Z,1.20
2022-10-06T11:12:12.882Z,1.30
2022-10-06T11:14:51.911Z,1.23
2022-10-06T11:17:45.079Z,1.20
2022-10-06T11:20:26.406Z,1.27
2022-10-06T11:22:59.622Z,2.15
2022-10-06T11:25:35.229Z,1.75
2022-10-06T11:28:13.325Z,1.20
2022-10-06T11:30:54.576Z,1.70
2022-10-06T11:36:55.450Z,1.17
2022-10-06T11:39:27.353Z,1.13
2022-10-06T11:42:01.441Z,1.75
2022-10-06T11:44:37.120Z,1.80
2022-10-06T11:47:10.286Z,1.40
2022-10-06T11:49:56.911Z,1.10
2022-10-06T11:52:55.240Z,1.10
2022-10-06T11:55:26.357Z,1.38
2022-10-06T11:58:29.977Z,1.35
2022-10-06T12:00:55.858Z,0.90
2022-10-06T12:04:06.347Z,1.20
2022-10-06T12:06:54.961Z,1.30
2022-10-06T12:09:28.294Z,1.10
2022-10-06T12:11:58.285Z,1.10
2022-10-06T12:17:30.268Z,1.83
2022-10-06T12:20:13.244Z,1.83
2022-10-06T12:22:48.645Z,1.25
2022-10-06T12:25:25.654Z,1.20
2022-10-06T12:28:05.952Z,1.30
2022-10-06T12:30:48.515Z,1.40
2022-10-06T12:33:43.764Z,1.48
2022-10-06T12:36:20.513Z,1.40
2022-10-06T12:39:22.563Z,1.58
2022-10-06T12:42:02.322Z,1.30
2022-10-06T12:44:34.439Z,1.33
2022-10-06T12:47:07.271Z,1.45
2022-10-06T12:49:44.880Z,1.15
2022-10-06T12:52:39.161Z,1.05
2022-10-06T12:55:18.812Z,1.40
2022-10-06T12:57:48.278Z,1.20
2022-10-06T13:00:33.094Z,1.38
2022-10-06T13:03:03.382Z,1.42
2022-10-06T13:05:31.575Z,1.17
2022-10-06T13:08:02.339Z,1.42
2022-10-06T13:10:32.278Z,1.33
2022-10-06T13:13:01.599Z,0.98
2022-10-06T13:18:13.916Z,0.98
2022-10-06T13:20:43.640Z,1.05
2022-10-06T13:23:34.726Z,1.23
2022-10-06T13:26:04.524Z,1.08
2022-10-06T13:28:47.567Z,1.23
2022-10-06T13:31:22.060Z,0.93
2022-10-06T13:33:53.627Z,1.23
2022-10-06T13:36:23.467Z,1.37
2022-10-06T13:38:53.288Z,1.38
2022-10-06T13:41:28.155Z,1.10
2022-10-06T13:44:00.192Z,1.33
2022-10-06T13:46:30.819Z,1.17
2022-10-06T13:49:04.125Z,0.90
2022-10-06T13:51:33.868Z,1.10
2022-10-06T13:54:17.696Z,0.90
2022-10-06T13:56:46.107Z,0.95
2022-10-06T13:59:33.958Z,1.48
2022-10-06T14:02:16.065Z,1.13
2022-10-06T14:04:44.056Z,1.13
2022-10-06T14:07:14.481Z,1.27
2022-10-06T14:09:44.000Z,1.17
2022-10-06T14:12:16.788Z,1.38
2022-10-06T14:14:48.433Z,1.50
2022-10-06T14:17:23.749Z,1.50
2022-10-06T14:19:52.498Z,1.30
2022-10-06T14:22:37.629Z,1.40
2022-10-06T14:25:12.235Z,1.23
2022-10-06T14:27:40.324Z,1.45
2022-10-06T14:30:09.598Z,1.20
2022-10-06T14:32:38.837Z,1.60
2022-10-06T14:35:09.946Z,1.10
2022-10-06T14:37:38.016Z,1.23
2022-10-06T14:40:11.546Z,1.38
2022-10-06T14:42:41.290Z,1.23
2022-10-06T14:45:10.131Z,1.10
2022-10-06T14:47:38.012Z,1.20
2022-10-06T14:50:07.340Z,1.48
2022-10-06T14:52:35.225Z,1.27
2022-10-06T14:55:03.081Z,1.42
2022-10-06T14:57:30.986Z,1.45
2022-10-06T15:00:00.875Z,1.35
2022-10-06T15:02:29.738Z,1.27
2022-10-06T15:04:57.700Z,1.23
2022-10-06T15:07:43.149Z,1.45
2022-10-06T15:10:10.988Z,1.10
2022-10-06T15:12:38.875Z,1.05
2022-10-06T15:15:09.340Z,1.35
2022-10-06T15:17:37.637Z,1.40
2022-10-06T15:20:07.357Z,1.05
2022-10-06T15:22:35.579Z,1.45
2022-10-06T15:25:03.746Z,1.50
2022-10-06T15:27:52.068Z,1.25
2022-10-06T15:30:23.051Z,1.42
2022-10-06T15:32:51.071Z,1.48
2022-10-06T15:35:18.836Z,0.95
2022-10-06T15:37:46.626Z,1.30
2022-10-06T15:40:14.707Z,1.40
2022-10-06T15:42:42.555Z,1.30
2022-10-06T15:45:11.579Z,1.25
2022-10-06T15:47:40.797Z,1.38
2022-10-06T15:50:09.465Z,1.25
2022-10-06T15:52:38.120Z,1.10
2022-10-06T15:55:06.445Z,1.30
2022-10-06T15:57:34.532Z,1.30
2022-10-06T16:00:02.372Z,1.30
2022-10-06T16:02:46.224Z,1.83
2022-10-06T16:05:51.924Z,1.63
2022-10-06T16:08:19.793Z,1.50
2022-10-06T16:10:50.669Z,1.40
2022-10-06T16:13:18.547Z,4.75
2022-10-06T16:15:53.507Z,22.85
2022-10-06T16:18:23.135Z,3.25
2022-10-06T16:20:54.251Z,1.50
2022-10-06T16:23:22.849Z,1.65
2022-10-06T16:25:50.696Z,1.67
2022-10-06T16:28:18.654Z,1.75
2022-10-06T16:30:55.355Z,1.80
2022-10-06T16:33:24.569Z,1.60
2022-10-06T16:36:00.426Z,2.20
2022-10-06T16:38:28.330Z,1.42
2022-10-06T16:40:57.051Z,1.40
2022-10-06T16:43:25.616Z,1.95
2022-10-06T16:46:01.985Z,1.55
2022-10-06T16:48:33.972Z,1.70
2022-10-06T16:51:07.637Z,1.52
2022-10-06T16:53:37.124Z,2.10
2022-10-06T16:56:06.706Z,2.05
2022-10-06T16:58:40.306Z,2.05
2022-10-06T17:01:09.666Z,1.70
2022-10-06T17:03:39.638Z,2.05
2022-10-06T17:06:11.385Z,2.00
2022-10-06T17:08:39.863Z,2.20
2022-10-06T17:11:11.714Z,2.03
2022-10-06T17:13:41.965Z,2.25
2022-10-06T17:19:06.740Z,2.47
2022-10-06T17:21:55.689Z,2.28
2022-10-06T17:24:23.067Z,2.03
2022-10-06T17:26:51.272Z,2.60
2022-10-06T17:29:21.461Z,2.15
2022-10-06T17:31:53.445Z,2.45
2022-10-06T17:34:26.548Z,1.95
2022-10-06T17:36:59.386Z,2.00
2022-10-06T17:39:27.206Z,2.00
2022-10-06T17:41:55.403Z,1.95
2022-10-06T17:44:26.887Z,2.03
2022-10-06T17:46:56.202Z,2.38
2022-10-06T17:49:26.497Z,2.03
2022-10-06T17:51:55.978Z,2.80
2022-10-06T17:54:26.849Z,3.92
2022-10-06T17:56:56.189Z,3.47
2022-10-06T17:59:28.011Z,2.67
2022-10-06T18:01:57.223Z,2.80
2022-10-06T18:04:27.070Z,3.33
2022-10-06T18:06:55.704Z,2.20
2022-10-06T18:09:23.832Z,2.50
2022-10-06T18:11:55.899Z,2.55
2022-10-06T18:14:25.643Z,3.25
2022-10-06T18:16:56.750Z,3.58
2022-10-06T18:19:30.095Z,2.70
2022-10-06T18:22:00.661Z,2.92
2022-10-06T18:24:30.274Z,4.05
2022-10-06T18:27:00.558Z,5.13
2022-10-06T18:29:30.802Z,3.63
2022-10-06T18:32:09.393Z,4.13
2022-10-06T18:37:36.465Z,3.70
2022-10-06T18:40:06.802Z,3.67
2022-10-06T18:42:35.825Z,4.00
2022-10-06T18:45:21.834Z,3.67
2022-10-06T18:48:07.292Z,3.42
2022-10-06T18:50:36.575Z,4.05
2022-10-06T18:53:04.964Z,3.67
2022-10-06T18:55:32.849Z,3.90
2022-10-06T18:58:02.011Z,3.70
2022-10-06T19:00:31.063Z,3.47
2022-10-06T19:02:58.948Z,3.90
2022-10-06T19:05:26.840Z,3.67
2022-10-06T19:07:56.509Z,3.90
2022-10-06T19:10:24.362Z,3.53
2022-10-06T19:12:52.416Z,3.38
2022-10-06T19:15:21.365Z,3.47
2022-10-06T19:17:49.891Z,3.65
2022-10-06T19:20:18.811Z,4.13
2022-10-06T19:22:47.726Z,3.95
2022-10-06T19:25:21.496Z,3.67
2022-10-06T19:27:50.169Z,3.65
2022-10-06T19:30:18.349Z,3.50
2022-10-06T19:32:47.310Z,3.22
2022-10-06T19:35:15.231Z,3.10
2022-10-06T19:37:43.618Z,3.25
2022-10-06T19:40:11.806Z,3.08
2022-10-06T19:42:49.209Z,3.05
2022-10-06T19:45:19.024Z,3.03
2022-10-06T19:47:47.352Z,2.90
2022-10-06T19:50:40.889Z,3.13
2022-10-06T19:53:09.087Z,3.70
2022-10-06T19:55:36.966Z,4.60
2022-10-06T19:58:06.078Z,3.78
2022-10-06T20:00:34.097Z,3.42
2022-10-06T20:03:01.927Z,3.50
2022-10-06T20:05:29.703Z,3.50
2022-10-06T20:07:57.548Z,3.47
2022-10-06T20:10:25.372Z,3.63
2022-10-06T20:12:53.251Z,2.78
2022-10-06T20:15:22.570Z,3.70
2022-10-06T20:17:51.026Z,3.63
2022-10-06T20:20:20.431Z,3.67
2022-10-06T20:22:49.765Z,3.38
2022-10-06T20:25:17.658Z,5.25
2022-10-06T20:27:46.041Z,5.25
2022-10-06T20:30:14.302Z,4.55
2022-10-06T20:32:43.506Z,4.00
2022-10-06T20:35:11.903Z,3.90
2022-10-06T20:37:41.890Z,4.50
2022-10-06T20:40:28.398Z,3.60
2022-10-06T20:42:56.280Z,3.42
2022-10-06T20:45:24.288Z,3.03
2022-10-06T20:47:53.517Z,3.38
2022-10-06T20:50:21.341Z,4.00
2022-10-06T20:52:49.243Z,3.70
2022-10-06T20:55:17.221Z,3.72
2022-10-06T20:57:45.445Z,3.55
2022-10-06T21:00:14.411Z,3.42
2022-10-06T21:02:42.284Z,4.13
2022-10-06T21:05:11.705Z,3.70
2022-10-06T21:07:39.692Z,4.00
2022-10-06T21:10:08.841Z,3.60
2022-10-06T21:12:36.888Z,3.97
2022-10-06T21:15:05.234Z,3.60
2022-10-06T21:17:33.067Z,3.50
2022-10-06T21:20:00.996Z,3.60
2022-10-06T21:22:32.196Z,3.40
2022-10-06T21:25:00.023Z,3.17
2022-10-06T21:27:28.601Z,3.55
2022-10-06T21:29:56.390Z,3.70
2022-10-06T21:32:24.948Z,3.55
2022-10-06T21:34:55.880Z,3.78
2022-10-06T21:37:23.797Z,3.72
2022-10-06T21:39:53.017Z,3.85
2022-10-06T21:42:20.852Z,3.50
2022-10-06T21:44:48.661Z,3.25
2022-10-06T21:47:16.602Z,3.40
2022-10-06T21:49:44.548Z,3.55
2022-10-06T21:52:15.266Z,3.63
2022-10-06T21:54:43.102Z,4.18
2022-10-06T21:57:15.383Z,3.30
2022-10-06T21:59:43.282Z,3.65
2022-10-06T22:06:38.217Z,3.45
2022-10-06T22:09:07.951Z,3.20
2022-10-06T22:11:39.062Z,3.55
2022-10-06T22:14:09.357Z,3.38
2022-10-06T22:16:38.769Z,3.58
2022-10-06T22:19:10.113Z,3.03
2022-10-06T22:21:41.475Z,3.10
2022-10-06T22:24:11.692Z,3.28
2022-10-06T22:26:41.095Z,3.33
2022-10-06T22:29:10.913Z,3.30
2022-10-06T22:31:40.273Z,3.25
2022-10-06T22:34:08.316Z,3.33
2022-10-06T22:36:36.343Z,2.97
2022-10-06T22:39:06.093Z,2.72
2022-10-06T22:41:34.130Z,3.10
2022-10-06T22:44:02.178Z,2.83
2022-10-06T22:46:32.084Z,2.80
2022-10-06T22:49:00.591Z,2.90
2022-10-06T22:51:28.555Z,2.97
2022-10-06T22:53:58.756Z,3.10
2022-10-06T22:56:29.576Z,3.17
2022-10-06T22:58:59.723Z,3.30
2022-10-06T23:01:29.436Z,3.33
2022-10-06T23:03:57.596Z,3.42
2022-10-06T23:06:25.678Z,3.28
2022-10-06T23:08:53.691Z,3.10
2022-10-06T23:11:22.914Z,3.70
2022-10-06T23:13:53.271Z,3.47
2022-10-06T23:16:22.256Z,3.58
2022-10-06T23:18:50.560Z,3.53
2022-10-06T23:21:23.229Z,3.15
2022-10-06T23:23:53.513Z,3.33
2022-10-06T23:26:22.317Z,3.60
2022-10-06T23:28:54.357Z,3.42
2022-10-06T23:34:14.771Z,3.28
2022-10-06T23:36:43.234Z,3.08
2022-10-06T23:39:11.416Z,3.40
2022-10-06T23:41:39.280Z,3.58
2022-10-06T23:44:08.581Z,3.10
2022-10-06T23:46:36.396Z,3.08
2022-10-06T23:49:04.272Z,3.35
2022-10-06T23:51:32.266Z,3.13
2022-10-06T23:54:00.084Z,2.50
2022-10-06T23:56:27.916Z,3.60
2022-10-06T23:58:55.799Z,3.03
